Time;durP1;ratioP1;P1;durP2;ratioP2;P2;SDS_P1;SDS_P2;PMS_P1;PMS_P2;Temp;Humidity;BMP_temperature;BMP_pressure;BME280_temperature;BME280_humidity;BME280_pressure;Samples;Min_cycle;Max_cycle;Signal;HPM_P1;HPM_P2
2023/06/20 00:00:20;;;;;;;4.43;4.13;;;28.70;42.50;29.40;100331.00;;;;5011460;28;20230;-50
2023/06/20 00:02:46;;;;;;;3.92;3.63;;;28.60;42.40;29.30;100311.00;;;;5011427;28;20206;-52
2023/06/20 00:05:11;;;;;;;4.25;3.85;;;28.70;42.40;29.30;100322.00;;;;5011241;28;20185;-49
2023/06/20 00:07:37;;;;;;;4.30;3.90;;;28.60;42.40;29.30;100324.00;;;;5011364;28;20874;-51
2023/06/20 00:10:03;;;;;;;4.57;4.18;;;28.60;42.40;29.30;100319.00;;;;5017787;28;20183;-54
2023/06/20 00:12:29;;;;;;;5.07;3.85;;;28.60;42.40;29.20;100325.00;;;;5020834;28;20188;-56
2023/06/20 00:14:55;;;;;;;4.20;3.80;;;28.60;42.40;29.20;100321.00;;;;5012271;28;20214;-51
2023/06/20 00:17:21;;;;;;;4.43;4.03;;;28.60;42.50;29.20;100324.00;;;;5012353;28;20253;-52
2023/06/20 00:19:47;;;;;;;4.40;4.00;;;28.60;42.50;29.20;100320.00;;;;5013416;28;20691;-50
2023/06/20 00:22:12;;;;;;;3.95;3.65;;;28.60;42.50;29.20;100315.00;;;;5012937;28;20175;-52
2023/06/20 00:24:38;;;;;;;4.85;4.18;;;28.50;42.50;29.10;100330.00;;;;5013787;28;20273;-50
2023/06/20 00:27:04;;;;;;;4.38;4.00;;;28.50;42.50;29.10;100320.00;;;;5038378;28;20696;-51
2023/06/20 00:29:30;;;;;;;4.05;3.75;;;28.50;42.60;29.10;100321.00;;;;5013378;28;20565;-51
2023/06/20 00:31:55;;;;;;;4.25;3.60;;;28.50;42.70;29.10;100322.00;;;;5010934;28;20183;-51
2023/06/20 00:34:21;;;;;;;4.30;4.00;;;28.50;42.70;29.10;100317.00;;;;5010991;28;20180;-53
2023/06/20 00:36:47;;;;;;;4.10;3.80;;;28.50;42.80;29.10;100323.00;;;;5010756;28;20203;-51
2023/06/20 00:39:13;;;;;;;4.20;3.88;;;28.50;42.80;29.10;100322.00;;;;5010754;28;20167;-50
2023/06/20 00:41:39;;;;;;;3.90;3.55;;;28.50;43.00;29.10;100332.00;;;;5026121;28;20306;-52
2023/06/20 00:44:05;;;;;;;4.03;3.70;;;28.40;42.90;29.00;100332.00;;;;5010813;28;20214;-52
2023/06/20 00:46:40;;;;;;;4.00;3.70;;;28.40;42.90;29.00;100337.00;;;;5010311;28;20202;-51
2023/06/20 00:49:07;;;;;;;4.13;3.83;;;28.40;43.20;29.00;100340.00;;;;5010831;28;20784;-52
2023/06/20 00:51:33;;;;;;;4.35;4.05;;;28.40;43.60;29.00;100345.00;;;;5010858;28;20226;-52
2023/06/20 00:53:59;;;;;;;4.30;3.90;;;28.40;43.80;29.00;100350.00;;;;5010619;28;20660;-51
2023/06/20 00:56:27;;;;;;;4.43;4.03;;;28.40;44.20;29.00;100345.00;;;;5025328;28;20197;-52
2023/06/20 00:58:53;;;;;;;4.20;3.90;;;28.40;44.50;29.00;100352.00;;;;5010446;28;20207;-51
2023/06/20 01:01:21;;;;;;;4.20;3.90;;;28.40;44.70;28.90;100354.00;;;;5010066;28;20223;-51
2023/06/20 01:03:50;;;;;;;4.25;3.92;;;28.40;45.00;28.90;100353.00;;;;5010399;28;20642;-50
2023/06/20 01:06:42;;;;;;;4.18;3.88;;;28.40;45.30;28.90;100353.00;;;;5009866;28;20178;-52
2023/06/20 01:09:31;;;;;;;4.45;4.10;;;28.40;45.60;28.90;100346.00;;;;5025132;28;20180;-51
2023/06/20 01:12:25;;;;;;;4.80;3.65;;;28.30;45.70;28.90;100346.00;;;;5028598;28;20248;-52
2023/06/20 01:15:09;;;;;;;3.92;3.63;;;28.30;46.00;28.80;100337.00;;;;5028693;28;20606;-52
2023/06/20 01:17:50;;;;;;;4.25;3.95;;;28.30;46.10;28.80;100341.00;;;;5028926;28;20210;-51
2023/06/20 01:20:33;;;;;;;4.43;3.95;;;28.30;46.40;28.80;100331.00;;;;5028734;28;20681;-54
2023/06/20 01:23:03;;;;;;;4.45;4.03;;;28.30;46.70;28.70;100344.00;;;;5014478;28;20182;-53
2023/06/20 01:25:40;;;;;;;4.68;3.95;;;28.20;47.00;28.70;100346.00;;;;5028917;28;20250;-51
2023/06/20 01:28:26;;;;;;;6.45;4.28;;;28.20;47.30;28.70;100344.00;;;;5029637;28;20248;-50
2023/06/20 01:31:04;;;;;;;4.30;4.00;;;28.20;47.40;28.70;100343.00;;;;5013205;28;20198;-52
2023/06/20 01:33:56;;;;;;;4.45;4.05;;;28.20;47.50;28.70;100346.00;;;;4997846;28;20182;-51
2023/06/20 01:36:22;;;;;;;5.13;4.32;;;28.20;47.80;28.60;100345.00;;;;5028092;28;20206;-51
2023/06/20 01:38:52;;;;;;;4.82;4.40;;;28.10;47.90;28.60;100337.00;;;;5028422;28;20171;-52
2023/06/20 01:41:21;;;;;;;5.80;4.20;;;28.10;48.10;28.60;100319.00;;;;5044852;28;20199;-49
2023/06/20 01:43:47;;;;;;;4.32;3.92;;;28.10;48.30;28.60;100341.00;;;;5028252;28;20571;-53
2023/06/20 01:46:13;;;;;;;10.43;4.50;;;28.10;48.30;28.60;100339.00;;;;5011579;28;20807;-51
2023/06/20 01:48:39;;;;;;;4.57;4.15;;;28.00;48.40;28.60;100342.00;;;;5012166;28;20262;-54
2023/06/20 01:51:06;;;;;;;4.70;4.22;;;28.00;48.50;28.60;100340.00;;;;5012133;28;20214;-51
2023/06/20 01:53:31;;;;;;;4.43;4.05;;;28.00;48.70;28.60;100346.00;;;;5028594;28;20734;-53
2023/06/20 01:55:57;;;;;;;4.82;4.43;;;28.10;48.90;28.50;100344.00;;;;4995576;28;20183;-51
2023/06/20 01:58:23;;;;;;;5.00;4.35;;;28.00;48.90;28.50;100345.00;;;;5028335;28;20195;-52
2023/06/20 02:00:49;;;;;;;4.55;4.25;;;28.00;49.00;28.50;100348.00;;;;5028125;28;20198;-52
2023/06/20 02:03:14;;;;;;;4.70;4.30;;;28.00;49.10;28.50;100347.00;;;;5011645;28;20183;-52
2023/06/20 02:05:41;;;;;;;4.68;4.10;;;28.00;49.10;28.50;100343.00;;;;5028000;28;20175;-52
2023/06/20 02:08:07;;;;;;;4.43;4.13;;;28.00;49.20;28.40;100343.00;;;;5012066;28;20201;-51
2023/06/20 02:10:32;;;;;;;4.30;3.90;;;28.00;49.40;28.40;100348.00;;;;5012136;28;20774;-52
2023/06/20 02:12:58;;;;;;;4.20;3.90;;;28.00;49.50;28.40;100346.00;;;;5028290;28;20167;-49
2023/06/20 02:15:25;;;;;;;4.25;3.95;;;27.90;49.40;28.40;100359.00;;;;5029332;28;20190;-51
2023/06/20 02:17:51;;;;;;;4.10;3.78;;;27.90;49.60;28.40;100351.00;;;;5038212;28;20257;-52
2023/06/20 02:20:17;;;;;;;4.20;3.90;;;27.90;49.90;28.40;100353.00;;;;5042189;28;20206;-52
2023/06/20 02:22:45;;;;;;;4.35;3.95;;;28.00;50.20;28.40;100355.00;;;;5034293;28;20217;-51
2023/06/20 02:25:18;;;;;;;4.07;3.78;;;27.90;50.20;28.30;100352.00;;;;5000259;28;20662;-51
2023/06/20 02:27:45;;;;;;;4.50;4.00;;;27.90;50.40;28.30;100338.00;;;;5033963;28;20273;-51
2023/06/20 02:30:11;;;;;;;4.60;4.20;;;27.90;50.50;28.30;100352.00;;;;5036047;28;20175;-50
2023/06/20 02:32:37;;;;;;;4.28;3.90;;;27.90;50.70;28.30;100334.00;;;;5026036;28;20175;-54
2023/06/20 02:35:03;;;;;;;4.50;4.10;;;27.90;51.50;28.30;100343.00;;;;5045522;28;20221;-51
2023/06/20 02:37:29;;;;;;;4.50;4.10;;;27.90;50.90;28.30;100344.00;;;;5002639;28;20700;-51
2023/06/20 02:39:55;;;;;;;4.45;4.05;;;27.80;51.00;28.20;100355.00;;;;5002703;28;20693;-50
2023/06/20 02:42:21;;;;;;;4.38;3.85;;;27.80;51.00;28.20;100358.00;;;;5034197;28;20179;-51
2023/06/20 02:44:47;;;;;;;4.50;4.10;;;27.80;51.00;28.20;100345.00;;;;5031592;28;20170;-52
2023/06/20 02:48:08;;;;;;;4.80;4.03;;;27.80;51.20;28.20;100350.00;;;;5032564;28;20187;-53
2023/06/20 02:51:21;;;;;;;4.32;4.00;;;27.80;51.60;28.10;100355.00;;;;4993617;28;20184;-52
2023/06/20 02:54:17;;;;;;;4.20;3.88;;;27.80;51.40;28.10;100353.00;;;;5032541;28;20549;-50
2023/06/20 02:56:46;;;;;;;4.32;3.90;;;27.80;51.60;28.10;100356.00;;;;5022980;28;20233;-52
2023/06/20 02:59:12;;;;;;;4.00;3.60;;;27.80;51.60;28.10;100354.00;;;;5019674;28;20180;-51
2023/06/20 03:01:37;;;;;;;4.60;4.20;;;27.80;51.70;28.10;100355.00;;;;5010643;28;20206;-54
2023/06/20 03:04:04;;;;;;;4.53;3.83;;;27.80;51.80;28.10;100355.00;;;;5011045;28;20187;-49
2023/06/20 03:06:30;;;;;;;4.50;4.10;;;27.80;52.20;28.10;100352.00;;;;5010431;28;20192;-50
2023/06/20 03:09:02;;;;;;;4.22;3.83;;;27.70;52.10;28.00;100363.00;;;;5011102;28;20180;-51
2023/06/20 03:11:28;;;;;;;3.95;3.65;;;27.70;52.30;28.00;100360.00;;;;5010394;28;20233;-50
2023/06/20 03:13:54;;;;;;;4.32;3.88;;;27.70;52.40;28.00;100366.00;;;;5010985;28;20167;-50
2023/06/20 03:16:19;;;;;;;4.10;3.80;;;27.70;52.70;28.00;100363.00;;;;5010204;28;20597;-51
2023/06/20 03:18:46;;;;;;;4.05;3.75;;;27.60;52.80;28.00;100361.00;;;;5011766;28;20180;-50
2023/06/20 03:21:12;;;;;;;4.30;3.90;;;27.70;53.00;28.00;100369.00;;;;5011464;28;20210;-54
2023/06/20 03:23:38;;;;;;;5.00;4.20;;;27.60;53.20;28.00;100367.00;;;;5011675;28;20163;-52
2023/06/20 03:26:06;;;;;;;4.22;3.85;;;27.60;53.40;28.00;100368.00;;;;5010755;28;20780;-51
2023/06/20 03:28:31;;;;;;;5.20;4.15;;;27.60;53.70;28.00;100361.00;;;;5008281;28;20160;-53
2023/06/20 03:30:57;;;;;;;4.28;3.97;;;27.60;53.70;28.00;100376.00;;;;5011349;28;20666;-52
2023/06/20 03:33:23;;;;;;;4.43;4.05;;;27.60;53.70;28.00;100377.00;;;;5011195;28;20183;-51
2023/06/20 03:35:50;;;;;;;4.47;4.07;;;27.60;53.70;28.00;100382.00;;;;5010898;28;20203;-53
2023/06/20 03:38:16;;;;;;;4.30;4.00;;;27.60;53.70;27.90;100385.00;;;;5011446;28;20282;-52
2023/06/20 03:40:42;;;;;;;4.35;3.95;;;27.60;53.70;27.90;100387.00;;;;5011672;28;20203;-55
2023/06/20 03:43:08;;;;;;;4.10;3.78;;;27.60;53.70;27.90;100384.00;;;;5011154;28;20175;-50
2023/06/20 03:45:34;;;;;;;5.20;3.92;;;27.60;53.60;27.90;100378.00;;;;5010953;28;20164;-51
2023/06/20 03:48:00;;;;;;;4.13;3.83;;;27.60;53.50;27.90;100364.00;;;;5011243;28;20565;-50
2023/06/20 03:50:26;;;;;;;5.05;3.95;;;27.60;53.70;27.90;100364.00;;;;5011421;28;20637;-52
2023/06/20 03:52:51;;;;;;;4.20;3.70;;;27.60;53.70;27.90;100365.00;;;;5010785;28;20267;-51
2023/06/20 03:55:17;;;;;;;4.28;3.97;;;27.60;53.70;27.90;100360.00;;;;5010292;28;20175;-52
2023/06/20 03:57:43;;;;;;;5.03;4.05;;;27.60;54.30;27.90;100368.00;;;;5010563;28;20199;-55
2023/06/20 04:00:11;;;;;;;4.20;3.90;;;27.50;53.70;27.80;100358.00;;;;5010998;28;20221;-52
2023/06/20 04:02:41;;;;;;;4.53;3.70;;;27.50;53.70;27.80;100359.00;;;;5010377;28;20176;-52
2023/06/20 04:05:10;;;;;;;4.18;3.78;;;27.50;53.70;27.80;100367.00;;;;5010317;28;20194;-54
2023/06/20 04:07:36;;;;;;;4.20;3.80;;;27.50;53.90;27.80;100354.00;;;;5009486;28;20188;-52
2023/06/20 04:10:02;;;;;;;4.13;3.72;;;27.50;54.00;27.80;100357.00;;;;5011016;28;20179;-54
2023/06/20 04:12:28;;;;;;;4.47;4.07;;;27.50;54.10;27.80;100362.00;;;;5011258;28;20186;-52
2023/06/20 04:14:54;;;;;;;4.40;4.00;;;27.50;54.10;27.80;100372.00;;;;5012356;28;20655;-51
2023/06/20 04:17:20;;;;;;;6.57;3.92;;;27.40;54.30;27.80;100369.00;;;;5010966;28;20208;-49
2023/06/20 04:19:46;;;;;;;8.57;3.80;;;27.50;54.60;27.80;100362.00;;;;5010508;28;20674;-50
2023/06/20 04:22:12;;;;;;;5.47;4.30;;;27.40;54.60;27.80;100364.00;;;;5010592;28;20642;-53
2023/06/20 04:24:38;;;;;;;5.32;4.50;;;27.40;54.60;27.80;100365.00;;;;5026169;28;20175;-57
2023/06/20 04:27:04;;;;;;;5.38;4.03;;;27.40;54.80;27.70;100364.00;;;;5018305;28;20259;-56
2023/06/20 04:29:30;;;;;;;5.15;4.00;;;27.40;54.60;27.70;100367.00;;;;5011275;28;20545;-52
2023/06/20 04:31:56;;;;;;;5.25;3.92;;;27.40;54.60;27.70;100376.00;;;;5011947;28;20198;-51
2023/06/20 04:34:23;;;;;;;4.72;3.90;;;27.40;54.90;27.70;100375.00;;;;5011830;28;20164;-53
2023/06/20 04:36:50;;;;;;;4.03;3.72;;;27.40;55.00;27.70;100364.00;;;;5011963;28;20183;-50
2023/06/20 04:39:16;;;;;;;5.65;4.13;;;27.40;55.10;27.70;100384.00;;;;5026113;28;20168;-53
2023/06/20 04:41:42;;;;;;;4.40;4.00;;;27.40;55.10;27.70;100381.00;;;;5021271;28;20538;-51
2023/06/20 04:44:08;;;;;;;5.80;5.20;;;27.30;55.00;27.70;100394.00;;;;5011579;28;20183;-55
2023/06/20 04:46:33;;;;;;;5.57;5.18;;;27.30;55.00;27.60;100396.00;;;;5010269;28;20196;-51
2023/06/20 04:49:00;;;;;;;4.95;4.55;;;27.30;55.00;27.60;100398.00;;;;5019710;28;20183;-51
2023/06/20 04:51:26;;;;;;;4.88;4.47;;;27.40;55.00;27.60;100399.00;;;;5029946;28;20179;-53
2023/06/20 04:53:52;;;;;;;4.78;4.38;;;27.30;55.10;27.60;100392.00;;;;5029948;28;20187;-53
2023/06/20 04:56:19;;;;;;;5.20;4.70;;;27.30;55.10;27.60;100393.00;;;;5028302;28;20167;-53
2023/06/20 04:58:46;;;;;;;4.40;4.10;;;27.30;55.10;27.60;100380.00;;;;5029948;28;20174;-53
2023/06/20 05:01:14;;;;;;;4.40;4.10;;;27.30;55.20;27.60;100383.00;;;;5029476;28;20890;-54
2023/06/20 05:03:42;;;;;;;4.47;4.07;;;27.30;55.30;27.60;100389.00;;;;5028327;28;20186;-53
2023/06/20 05:06:08;;;;;;;4.60;4.20;;;27.30;55.30;27.60;100384.00;;;;5025060;28;20180;-53
2023/06/20 05:08:34;;;;;;;4.32;3.92;;;27.20;55.30;27.60;100386.00;;;;5018888;28;20233;-54
2023/06/20 05:10:59;;;;;;;4.35;4.05;;;27.30;55.50;27.60;100384.00;;;;5028399;28;20711;-53
2023/06/20 05:13:25;;;;;;;6.13;4.53;;;27.30;55.50;27.60;100386.00;;;;5028574;28;20179;-53
2023/06/20 05:15:51;;;;;;;4.65;4.03;;;27.20;55.30;27.60;100388.00;;;;5029298;28;20205;-52
2023/06/20 05:18:17;;;;;;;4.85;4.22;;;27.30;55.50;27.60;100384.00;;;;5028121;28;20248;-55
2023/06/20 05:20:42;;;;;;;5.80;4.28;;;27.30;55.50;27.50;100395.00;;;;5028475;28;20201;-55
2023/06/20 05:23:08;;;;;;;4.45;4.05;;;27.20;55.60;27.50;100379.00;;;;5028407;28;20177;-54
2023/06/20 05:25:34;;;;;;;5.53;4.43;;;27.20;55.60;27.50;100387.00;;;;5028158;28;20172;-54
2023/06/20 05:28:00;;;;;;;4.65;4.30;;;27.20;55.70;27.50;100396.00;;;;5028716;28;20269;-53
2023/06/20 05:30:25;;;;;;;4.30;3.90;;;27.20;55.40;27.50;100386.00;;;;5029486;28;20685;-53
2023/06/20 05:32:52;;;;;;;4.78;4.38;;;27.20;55.60;27.50;100391.00;;;;5028843;28;20254;-53
2023/06/20 05:35:18;;;;;;;5.10;4.60;;;27.20;55.70;27.50;100383.00;;;;5028657;28;20257;-52
2023/06/20 05:37:46;;;;;;;4.88;4.20;;;27.20;55.70;27.50;100376.00;;;;5029014;28;20755;-52
2023/06/20 05:40:12;;;;;;;4.22;3.92;;;27.20;55.70;27.40;100376.00;;;;5028278;28;20233;-52
2023/06/20 05:42:37;;;;;;;5.00;4.60;;;27.10;55.50;27.40;100383.00;;;;5028424;28;20198;-53
2023/06/20 05:45:04;;;;;;;4.53;4.18;;;27.10;55.60;27.40;100375.00;;;;5028571;28;20205;-54
2023/06/20 05:47:29;;;;;;;4.40;4.10;;;27.10;56.20;27.40;100381.00;;;;5028170;28;20203;-53
2023/06/20 05:49:57;;;;;;;4.10;3.80;;;27.10;55.60;27.40;100377.00;;;;5029190;28;20217;-54
2023/06/20 05:52:22;;;;;;;4.10;3.80;;;27.10;55.60;27.40;100374.00;;;;5031025;28;20206;-53
2023/06/20 05:54:48;;;;;;;4.00;3.70;;;27.10;56.20;27.40;100376.00;;;;5032793;28;21128;-53
2023/06/20 05:57:14;;;;;;;4.38;4.03;;;27.10;55.60;27.40;100369.00;;;;5033182;28;20687;-54
2023/06/20 05:59:40;;;;;;;4.30;4.00;;;27.10;55.60;27.40;100378.00;;;;5033312;28;20254;-54
2023/06/20 06:02:06;;;;;;;4.22;3.92;;;27.10;55.60;27.40;100378.00;;;;5015018;28;20180;-52
2023/06/20 06:04:33;;;;;;;4.50;4.10;;;27.10;55.60;27.40;100387.00;;;;5013452;28;20175;-55
2023/06/20 06:06:59;;;;;;;5.32;4.20;;;27.10;55.70;27.10;100371.00;;;;5015033;28;20226;-53
2023/06/20 06:09:25;;;;;;;4.28;3.88;;;27.10;55.70;27.30;100397.00;;;;5012480;28;20175;-53
2023/06/20 06:11:50;;;;;;;4.47;4.10;;;27.00;55.70;27.30;100407.00;;;;5012522;28;20191;-53
2023/06/20 06:14:16;;;;;;;4.60;4.20;;;27.00;55.80;27.30;100393.00;;;;5013245;28;20183;-53
2023/06/20 06:16:44;;;;;;;4.40;4.10;;;27.10;56.00;27.30;100397.00;;;;5012541;28;20184;-53
2023/06/20 06:19:10;;;;;;;4.70;4.28;;;27.00;56.00;27.30;100395.00;;;;5011641;28;20258;-53
2023/06/20 06:21:36;;;;;;;4.20;3.90;;;27.00;56.00;27.30;100407.00;;;;5012111;28;20200;-53
2023/06/20 06:24:01;;;;;;;4.55;4.22;;;27.00;56.00;27.30;100398.00;;;;5012978;28;20167;-52
2023/06/20 06:26:27;;;;;;;4.30;4.00;;;27.00;55.90;27.30;100398.00;;;;5012622;28;20191;-52
2023/06/20 06:28:54;;;;;;;4.20;3.90;;;27.00;55.90;27.30;100396.00;;;;5020759;28;20179;-53
2023/06/20 06:31:25;;;;;;;4.60;4.20;;;27.00;56.00;27.30;100391.00;;;;5033211;28;20171;-52
2023/06/20 06:33:51;;;;;;;4.75;4.30;;;27.00;56.00;27.30;100388.00;;;;5012719;28;20184;-53
2023/06/20 06:36:16;;;;;;;4.70;4.30;;;26.90;56.00;27.20;100389.00;;;;5026735;28;20195;-52
2023/06/20 06:38:48;;;;;;;4.18;3.83;;;26.90;56.10;27.20;100382.00;;;;5027216;28;20183;-52
2023/06/20 06:41:16;;;;;;;5.55;3.90;;;26.90;56.20;27.20;100395.00;;;;5023544;28;20199;-54
2023/06/20 06:43:41;;;;;;;4.50;4.10;;;26.90;56.40;27.20;100390.00;;;;5016639;28;20175;-54
2023/06/20 06:46:07;;;;;;;5.15;4.20;;;26.90;56.60;27.20;100392.00;;;;5041293;28;20171;-53
2023/06/20 06:48:33;;;;;;;4.43;4.03;;;26.90;56.60;27.20;100383.00;;;;5036461;28;20167;-52
2023/06/20 06:50:59;;;;;;;4.53;4.13;;;26.90;56.50;27.20;100383.00;;;;5031948;28;20167;-52
2023/06/20 06:53:24;;;;;;;4.65;4.25;;;26.90;56.40;27.20;100383.00;;;;5031119;28;20669;-52
2023/06/20 06:55:50;;;;;;;4.40;4.00;;;26.90;56.70;27.20;100375.00;;;;5031184;28;20278;-53
2023/06/20 06:58:16;;;;;;;4.40;3.97;;;26.90;56.40;27.00;100376.00;;;;5030721;28;20802;-53
2023/06/20 07:00:42;;;;;;;4.63;4.22;;;26.90;56.60;27.20;100378.00;;;;5030937;28;20667;-53
2023/06/20 07:03:08;;;;;;;4.38;3.90;;;26.90;56.90;27.20;100378.00;;;;5045604;28;20178;-54
2023/06/20 07:05:34;;;;;;;4.78;4.38;;;26.90;57.00;27.20;100383.00;;;;5030540;28;20210;-52
2023/06/20 07:08:00;;;;;;;4.50;4.10;;;26.80;56.70;27.20;100371.00;;;;5030443;28;20191;-54
2023/06/20 07:10:25;;;;;;;4.40;4.00;;;26.90;56.80;27.20;100364.00;;;;5025700;28;20203;-53
2023/06/20 07:12:51;;;;;;;4.63;4.22;;;26.80;56.60;27.20;100364.00;;;;5010488;28;20587;-55
2023/06/20 07:15:17;;;;;;;4.50;4.10;;;26.90;57.10;27.20;100358.00;;;;5018747;28;20241;-52
2023/06/20 07:17:43;;;;;;;4.47;4.10;;;26.80;57.00;27.10;100362.00;;;;5029916;28;20194;-53
2023/06/20 07:20:09;;;;;;;4.40;4.00;;;26.80;57.20;27.20;100364.00;;;;5030368;28;20195;-53
2023/06/20 07:22:35;;;;;;;4.38;4.07;;;26.80;57.20;27.10;100358.00;;;;5029149;28;20229;-51
2023/06/20 07:25:01;;;;;;;4.10;3.80;;;26.90;57.40;27.10;100361.00;;;;5021769;28;20841;-52
2023/06/20 07:27:27;;;;;;;4.30;4.00;;;26.90;57.60;27.10;100351.00;;;;5029837;28;20724;-54
2023/06/20 07:29:53;;;;;;;4.57;4.28;;;26.80;57.60;27.20;100361.00;;;;5029878;28;20179;-53
2023/06/20 07:32:18;;;;;;;4.40;4.10;;;26.90;57.70;27.20;100351.00;;;;5029774;28;20171;-52
2023/06/20 07:34:44;;;;;;;4.35;3.95;;;26.80;57.60;27.20;100361.00;;;;5028805;28;20269;-52
2023/06/20 07:37:10;;;;;;;4.38;3.95;;;26.80;57.60;27.20;100357.00;;;;5029185;28;20741;-51
2023/06/20 07:39:43;;;;;;;4.32;4.03;;;26.90;57.70;27.20;100360.00;;;;5030262;28;20163;-52
2023/06/20 07:42:09;;;;;;;4.28;3.97;;;26.90;57.80;27.20;100357.00;;;;5029848;28;20187;-53
2023/06/20 07:44:35;;;;;;;4.60;4.20;;;26.80;57.60;27.20;100364.00;;;;5029759;28;20174;-52
2023/06/20 07:47:01;;;;;;;3.95;3.65;;;26.90;57.70;27.20;100352.00;;;;5030019;28;20191;-53
2023/06/20 07:49:28;;;;;;;4.28;3.97;;;26.90;57.70;27.20;100343.00;;;;5031347;28;20323;-53
2023/06/20 07:51:54;;;;;;;3.90;3.67;;;26.80;57.60;27.20;100351.00;;;;5031592;28;20202;-53
2023/06/20 07:54:19;;;;;;;4.45;4.10;;;26.90;57.90;27.20;100339.00;;;;5031559;28;20175;-55
2023/06/20 07:56:45;;;;;;;4.07;3.78;;;26.80;57.90;27.20;100330.00;;;;5031181;28;20226;-53
2023/06/20 07:59:11;;;;;;;4.32;4.03;;;26.90;58.00;27.20;100326.00;;;;5031583;28;20190;-53
2023/06/20 08:01:37;;;;;;;4.60;4.13;;;26.90;58.10;27.20;100325.00;;;;5036847;28;20191;-53
2023/06/20 08:04:02;;;;;;;4.30;4.00;;;26.90;57.90;27.20;100322.00;;;;5051430;28;20190;-54
2023/06/20 08:06:28;;;;;;;4.03;3.72;;;26.90;57.80;27.20;100315.00;;;;5051736;28;20429;-54
2023/06/20 08:08:54;;;;;;;4.20;3.90;;;26.90;57.80;27.00;100320.00;;;;5041816;28;20672;-53
2023/06/20 08:11:23;;;;;;;4.43;4.13;;;26.90;58.30;27.20;100319.00;;;;5031404;28;20658;-53
2023/06/20 08:13:49;;;;;;;3.97;3.67;;;26.90;58.20;27.20;100318.00;;;;5030599;28;20233;-55
2023/06/20 08:16:15;;;;;;;4.45;4.05;;;26.90;58.00;27.20;100320.00;;;;5030452;28;20171;-53
2023/06/20 08:18:41;;;;;;;4.25;3.95;;;26.90;57.90;27.30;100321.00;;;;5030807;28;20178;-53
2023/06/20 08:21:07;;;;;;;4.47;4.18;;;26.90;57.80;27.30;100324.00;;;;5031091;28;20210;-54
2023/06/20 08:23:33;;;;;;;4.72;4.32;;;26.90;58.00;27.30;100322.00;;;;5030760;28;20186;-52
2023/06/20 08:25:59;;;;;;;4.30;4.00;;;26.90;58.20;27.30;100325.00;;;;5030929;28;20660;-53
2023/06/20 08:28:25;;;;;;;4.68;4.38;;;26.90;57.90;27.30;100319.00;;;;5031058;28;20191;-53
2023/06/20 08:30:51;;;;;;;4.70;4.30;;;26.90;58.00;27.30;100320.00;;;;5030825;28;20171;-53
2023/06/20 08:33:17;;;;;;;4.40;4.10;;;26.90;58.10;27.30;100317.00;;;;5030322;28;20262;-52
2023/06/20 08:35:43;;;;;;;4.50;4.10;;;26.90;57.60;27.10;100315.00;;;;5029758;28;20361;-55
2023/06/20 08:38:09;;;;;;;4.38;4.07;;;26.90;57.70;27.30;100314.00;;;;5042876;28;20187;-54
2023/06/20 08:40:35;;;;;;;4.68;4.28;;;26.80;58.00;27.40;100310.00;;;;5037942;28;20781;-52
2023/06/20 08:43:01;;;;;;;4.57;4.28;;;26.90;58.50;27.40;100313.00;;;;5013162;28;20188;-54
2023/06/20 08:45:27;;;;;;;4.95;4.55;;;26.90;57.70;27.40;100306.00;;;;5011128;28;20247;-53
2023/06/20 08:47:59;;;;;;;5.75;4.60;;;26.90;58.10;27.40;100305.00;;;;5026312;28;20719;-54
2023/06/20 08:50:30;;;;;;;5.35;4.70;;;26.90;57.80;27.40;100315.00;;;;5025629;28;20245;-54
2023/06/20 08:53:00;;;;;;;4.75;4.45;;;26.90;57.60;27.40;100308.00;;;;5026596;28;20172;-55
2023/06/20 08:55:28;;;;;;;4.43;4.10;;;26.90;57.80;27.40;100311.00;;;;5041279;28;20582;-52
2023/06/20 08:57:53;;;;;;;4.68;4.28;;;26.90;57.70;27.40;100319.00;;;;5011394;28;20198;-53
2023/06/20 09:00:23;;;;;;;4.60;4.30;;;26.90;57.80;27.40;100303.00;;;;5010792;28;20707;-53
2023/06/20 09:02:53;;;;;;;4.40;4.10;;;26.90;57.40;27.40;100313.00;;;;5010238;28;20331;-53
2023/06/20 09:05:19;;;;;;;4.57;4.28;;;26.90;57.50;27.50;100315.00;;;;5009692;28;20182;-54
2023/06/20 09:07:44;;;;;;;4.25;3.95;;;26.90;57.40;27.50;100321.00;;;;5011208;28;20187;-53
2023/06/20 09:10:14;;;;;;;4.40;4.10;;;26.90;57.40;27.50;100319.00;;;;5016267;28;20179;-55
2023/06/20 09:12:53;;;;;;;4.72;4.32;;;26.90;57.30;27.50;100318.00;;;;5011870;28;20207;-52
2023/06/20 09:15:24;;;;;;;4.60;4.20;;;27.00;57.50;27.50;100317.00;;;;5009989;28;20176;-52
2023/06/20 09:17:54;;;;;;;4.90;4.50;;;27.00;57.70;27.60;100317.00;;;;5009837;28;20661;-53
2023/06/20 09:20:19;;;;;;;4.82;4.50;;;27.10;57.70;27.40;100317.00;;;;5011048;28;20214;-51
2023/06/20 09:22:45;;;;;;;4.65;4.35;;;27.10;57.80;27.60;100314.00;;;;5010446;28;20168;-52
2023/06/20 09:25:12;;;;;;;4.50;4.10;;;27.00;57.70;27.60;100324.00;;;;5010260;28;20643;-53
2023/06/20 09:27:42;;;;;;;4.25;3.95;;;27.10;57.80;27.60;100313.00;;;;5010268;28;20207;-53
2023/06/20 09:30:08;;;;;;;4.82;4.45;;;27.10;57.80;27.70;100320.00;;;;5009934;28;20175;-53
2023/06/20 09:32:36;;;;;;;4.78;4.45;;;27.10;58.00;27.70;100318.00;;;;5012406;28;20189;-53
2023/06/20 09:35:03;;;;;;;4.55;4.25;;;27.10;57.80;27.70;100326.00;;;;5027091;28;20225;-54
2023/06/20 09:37:45;;;;;;;4.72;4.25;;;27.10;57.70;27.70;100320.00;;;;5027682;28;20248;-54
2023/06/20 09:40:19;;;;;;;4.88;4.47;;;27.10;57.60;27.70;100313.00;;;;5027285;28;20708;-53
2023/06/20 09:42:46;;;;;;;4.80;4.40;;;27.10;57.60;27.70;100311.00;;;;5027626;28;20183;-53
2023/06/20 09:45:14;;;;;;;4.75;4.45;;;27.10;57.40;27.70;100322.00;;;;5026546;28;20182;-53
2023/06/20 09:47:41;;;;;;;5.10;4.70;;;27.10;57.40;27.70;100312.00;;;;5029756;28;20629;-52
2023/06/20 09:50:16;;;;;;;4.38;4.07;;;27.10;57.60;27.70;100308.00;;;;5029776;28;20190;-54
2023/06/20 09:53:16;;;;;;;5.25;4.50;;;27.10;57.50;27.70;100319.00;;;;5029727;28;20771;-52
2023/06/20 09:55:42;;;;;;;4.85;4.45;;;27.20;57.50;27.70;100319.00;;;;5029707;28;20547;-53
2023/06/20 09:58:07;;;;;;;4.72;4.32;;;27.20;57.70;27.80;100305.00;;;;5028355;28;20194;-55
2023/06/20 10:00:33;;;;;;;4.90;4.40;;;27.30;57.70;27.80;100312.00;;;;4995486;28;20241;-53
2023/06/20 10:03:00;;;;;;;4.95;4.55;;;27.30;57.80;27.80;100306.00;;;;5029337;28;20525;-52
2023/06/20 10:05:27;;;;;;;5.40;5.00;;;27.30;57.90;27.90;100303.00;;;;5028363;28;20182;-53
2023/06/20 10:07:57;;;;;;;5.10;4.72;;;27.30;57.90;27.90;100305.00;;;;5029606;28;20222;-53
2023/06/20 10:10:23;;;;;;;5.25;4.85;;;27.30;58.00;27.90;100297.00;;;;5029472;28;20302;-55
2023/06/20 10:12:49;;;;;;;4.85;4.47;;;27.30;57.90;27.90;100289.00;;;;5029594;28;20174;-53
2023/06/20 10:15:14;;;;;;;5.13;4.72;;;27.30;58.20;27.90;100288.00;;;;5027990;28;20175;-53
2023/06/20 10:17:46;;;;;;;5.10;4.70;;;27.30;57.90;27.90;100287.00;;;;5028176;28;20716;-52
2023/06/20 10:20:33;;;;;;;5.32;4.80;;;27.30;57.70;27.90;100284.00;;;;5028513;28;20207;-53
2023/06/20 10:23:03;;;;;;;7.75;5.75;;;27.40;57.80;28.00;100270.00;;;;5029658;28;20611;-55
2023/06/20 10:25:29;;;;;;;5.07;4.68;;;27.40;57.80;28.00;100278.00;;;;5028082;28;20167;-55
2023/06/20 10:27:57;;;;;;;5.22;4.78;;;27.40;57.60;28.00;100290.00;;;;5027116;28;20743;-54
2023/06/20 10:30:50;;;;;;;4.93;4.63;;;27.40;57.40;28.10;100283.00;;;;5027814;28;20229;-52
2023/06/20 10:33:36;;;;;;;5.10;4.70;;;27.50;57.20;28.10;100285.00;;;;5028100;28;20179;-54
2023/06/20 10:36:10;;;;;;;5.13;4.63;;;27.40;56.30;28.10;100277.00;;;;5028792;28;20194;-54
2023/06/20 10:38:57;;;;;;;4.50;4.20;;;27.50;56.20;28.20;100271.00;;;;5031832;28;20171;-55
2023/06/20 10:41:27;;;;;;;5.13;4.60;;;27.60;56.30;28.20;100276.00;;;;5032675;28;20210;-55
2023/06/20 10:43:59;;;;;;;5.22;4.80;;;27.50;56.10;28.20;100280.00;;;;5031921;28;20167;-52
2023/06/20 10:46:37;;;;;;;5.35;4.95;;;27.60;55.90;28.20;100275.00;;;;5028205;28;20179;-53
2023/06/20 10:49:03;;;;;;;4.95;4.53;;;27.60;55.70;28.20;100267.00;;;;5049019;28;20175;-54
2023/06/20 10:51:29;;;;;;;5.03;4.63;;;27.60;55.90;28.30;100260.00;;;;5042333;28;20175;-53